LFBI/PIS METAR and TAF weather

Enter ICAO airport designator
Station Type Date Time Source
LFBI METAR 2019/10/23 20:30 UTC NOAA

LFBI 232030Z AUTO 15003KT 5000 BR NCD 13/12 Q1005 TEMPO 0800 FG BKN010 BKN020TCU


Station Type Date Time Source
LFBI Decoded METAR 2019/10/23 20:30 UTC NOAA

Poitiers, France (LFBI) 46-35N 000-19E 120M
Oct 23, 2019 - 04:30 PM EDT / 2019.10.23 2030 UTC
Wind: from the SSE (150 degrees) at 3 MPH (3 KT):0
Visibility: 3 mile(s):0
Weather: mist; Towering cumulus clouds observed
Temperature: 55 F (13 C)
Dew Point: 53 F (12 C)
Relative Humidity: 93%
Pressure (altimeter): 29.68 in. Hg (1005 hPa)
ob: LFBI 232030Z AUTO 15003KT 5000 BR NCD 13/12 Q1005 TEMPO 0800 FG BKN010 BKN020TCU
cycle: 20

Station Type Date Time Source
LFBI TAF 2019/10/23 19:56 UTC NOAA

TAF
AMD LFBI 231947Z 2319/2418 32005KT CAVOK
BECMG 2320/2322 BKN025 PROB40 2319/2402 0800 FG VV/// PROB40
TEMPO 2322/2402 4000 -SHRA BKN010 BKN020TCU
TEMPO 2402/2406 BKN005
TEMPO 2410/2416 4000 -RA OVC005
BECMG 2416/2418 CAVOK

Example: see airport list